Date StartTime U_cm/s V_cm/s W_cm/s Ustd_cm/s Vstd_cm/s Wstd_cm/s Uvar_(cm/s)^2 Vvar_(cm/s)^2 Wvar_(cm/s)^2 KE_(m/s)^2 TurbulentKE_(m/s)^2 HorizWindSpeed_cm/s FrictionSpeec_cm/s DragCoef SpeedOfSound_m/s SonicTemperature_C Pressure_mb 
08/25/2013  16:30:00      101.327     -293.664      -30.849      140.028      183.488       84.394    19607.751    33667.669     7122.340        7.891        3.020      310.654       81.467        0.069      346.999       25.646      858.845
08/25/2013  16:31:00      -26.013      -65.801       11.805      111.539       87.879       54.387    12440.846     7722.642     2957.947        1.413        1.156       70.757       41.348        0.341      347.171       25.946      858.837
08/25/2013  16:32:00       18.303     -108.732       -2.481       91.726       98.172       43.182     8413.615     9637.682     1864.648        1.603        0.996      110.262       45.005        0.167      347.092       25.810      858.848
08/25/2013  16:33:00      -99.570     -139.441        0.824      121.088      128.363       60.633    14662.197    16477.049     3676.394        3.208        1.741      171.342       64.239        0.141      347.261       26.100      858.886
08/25/2013  16:34:00     -302.404     -270.931        1.044      202.895      151.570       91.401    41166.407    22973.446     8354.140       11.866        3.625      406.020      106.241        0.068      347.049       25.732      858.820
08/25/2013  16:35:00     -282.996     -297.544       -5.566      172.206      184.666       80.005    29654.857    34101.439     6400.825       11.939        3.508      410.633       70.639        0.030      346.995       25.640      858.870
08/25/2013  16:36:00     -192.179     -175.381       10.196      138.562      132.532       69.010    19199.305    17564.649     4762.414        5.465        2.076      260.176       61.049        0.055      347.038       25.714      858.838
08/25/2013  16:37:00       -6.638     -272.183      -19.252      235.363      146.422       94.981    55395.720    21439.495     9021.395        8.016        4.293      272.264       78.556        0.083      346.974       25.606      858.858
08/25/2013  16:38:00      -69.934     -259.371       -0.563      185.404      147.944       94.361    34374.703    21887.349     8904.079        6.865        3.258      268.634       91.876        0.117      346.858       25.405      858.857
08/25/2013  16:39:00     -197.131     -188.911        0.767      158.066      108.928       73.257    24984.836    11865.286     5366.521        5.837        2.111      273.035       60.328        0.049      346.922       25.515      858.876
08/25/2013  16:40:00     -276.407     -261.975      -17.240      146.714      129.770       63.417    21524.855    16840.361     4021.676        9.385        2.119      380.830       56.560        0.022      346.927       25.523      858.884
08/25/2013  16:41:00     -250.695     -223.035        6.898      191.042      169.428       88.235    36497.038    28705.745     7785.458        9.280        3.649      335.548       90.248        0.072      347.005       25.657      858.878
08/25/2013  16:42:00     -391.712     -204.880      -19.558      166.927      233.846       83.400    27864.769    54684.053     6955.569       14.263        4.475      442.056       72.897        0.027      346.975       25.606      858.840
08/25/2013  16:43:00     -249.027     -181.757        3.392      152.722      109.495       79.110    23323.921    11989.186     6258.406        6.831        2.079      308.302       80.428        0.068      347.014       25.673      858.892
08/25/2013  16:44:00     -181.415     -222.972        8.966      138.590      119.708       66.713    19207.253    14330.014     4450.674        6.034        1.899      287.451       70.196        0.060      347.006       25.658      858.887
08/25/2013  16:45:00     -147.379      -58.712        8.559      116.147       94.713       59.129    13490.180     8970.576     3496.267        2.559        1.298      158.643       50.093        0.100      347.161       25.929      858.867
08/25/2013  16:46:00     -268.671     -166.437       -0.616      146.956      154.516       71.682    21596.046    23875.079     5138.328        7.524        2.530      316.046       79.503        0.063      347.079       25.785      858.881
08/25/2013  16:47:00     -318.986     -147.601       -7.769      162.431      121.276       79.535    26383.826    14707.951     6325.781        8.550        2.371      351.479       81.601        0.054      346.979       25.613      858.855
08/25/2013  16:48:00     -235.293      -75.721       -1.229      169.678      131.225       72.213    28790.568    17220.006     5214.783        5.615        2.561      247.178       94.084        0.145      347.030       25.701      858.846
08/25/2013  16:49:00     -209.640      -89.286        3.856      171.412      109.800       64.683    29382.243    12056.068     4183.952        4.877        2.281      227.861       70.164        0.095      347.102       25.824      858.831
08/25/2013  16:50:00     -273.049     -132.343        7.334      210.902      144.175       93.546    44479.862    20786.409     8750.915        8.306        3.701      303.431      113.452        0.140      347.032       25.704      858.888
08/25/2013  16:51:00     -404.061     -141.237      -16.471      186.178      153.678       72.822    34662.393    23617.036     5303.085       12.352        3.179      428.034       70.145        0.027      346.920       25.510      858.923
08/25/2013  16:52:00      -30.062      -73.098       18.548      106.439       78.041       56.739    11329.244     6090.412     3219.325        1.361        1.032       79.039       57.547        0.530      347.187       25.974      858.990
08/25/2013  16:53:00     -229.692     -160.817       -6.902      101.493      143.536       55.338    10300.843    20602.459     3062.257        5.631        1.698      280.394       45.535        0.026      347.073       25.774      858.975
08/25/2013  16:54:00     -140.455     -129.028        4.772      158.770      113.568       49.396    25207.864    12897.589     2439.970        3.846        2.027      190.725       67.820        0.126      347.222       26.034      858.992
08/25/2013  16:55:00     -295.561     -285.423      -14.090      188.051      154.207       82.664    35363.249    23779.665     6833.264       11.749        3.299      410.880       76.380        0.035      347.108       25.836      859.005
08/25/2013  16:56:00     -333.846     -208.023       -4.107      225.085      136.415       89.684    50663.196    18609.177     8043.189       11.601        3.866      393.354      107.126        0.074      346.866       25.418      858.974
08/25/2013  16:57:00     -238.868     -381.974        8.934      169.828      215.371       88.508    28841.505    46384.685     7833.649       14.303        4.153      450.513       92.924        0.043      346.909       25.492      858.940
08/25/2013  16:58:00     -292.447     -322.311       -3.842      187.465      209.532       76.895    35143.214    43903.524     5912.821       13.717        4.248      435.212       61.408        0.020      346.914       25.500      858.927
08/25/2013  16:59:00     -190.658     -191.904       31.167      174.656      119.811       77.174    30504.652    14354.641     5955.900        6.247        2.541      270.513       75.364        0.078      346.914       25.501      858.942
08/25/2013  17:00:00     -225.380     -228.593       -5.731      219.175      103.291       63.717    48037.733    10669.048     4059.809        8.291        3.138      321.016       89.112        0.077      346.941       25.548      858.951
08/25/2013  17:01:00     -322.877     -165.582        9.330      235.667      168.530       98.089    55539.010    28402.460     9621.377       11.264        4.678      362.859      103.266        0.081      346.861       25.409      858.895
08/25/2013  17:02:00     -469.477     -369.808      -13.414      203.801      216.671      115.937    41534.649    46946.434    13441.298       22.961        5.096      597.634       95.909        0.026      346.798       25.301      858.913
08/25/2013  17:03:00     -423.887     -279.827      -20.107      249.007      161.905      101.427    62004.487    26213.291    10287.476       17.843        4.925      507.920      113.113        0.050      346.771       25.253      858.878
08/25/2013  17:04:00     -258.399     -250.500       -4.679      176.891      168.892       81.711    31290.554    28524.409     6676.724        9.800        3.325      359.889       90.464        0.063      346.765       25.244      858.920
08/25/2013  17:05:00     -160.496     -206.756       -1.725      148.961      111.058       69.103    22189.421    12333.843     4775.202        5.390        1.965      261.739       72.303        0.076      346.713       25.154      859.020
08/25/2013  17:06:00     -299.517     -369.118       -1.353      192.215      203.495       98.279    36946.791    41410.258     9658.760       15.697        4.401      475.351      108.069        0.052      346.716       25.159      858.978
08/25/2013  17:07:00     -333.204     -265.109      -15.174      256.621      214.206      108.333    65854.378    45884.253    11736.064       15.248        6.174      425.802      130.196        0.093      346.736       25.194      858.969
08/25/2013  17:08:00     -480.682     -316.392      -16.643      229.605      201.501       95.512    52718.307    40602.460     9122.451       21.692        5.122      575.464      106.557        0.034      346.683       25.104      858.930
08/25/2013  17:09:00     -361.698     -263.176        3.794      215.582      126.287      100.822    46475.648    15948.304    10164.987       13.633        3.629      447.311      112.347        0.063      346.770       25.253      858.960
08/25/2013  17:10:00     -289.734     -231.889       -5.250      193.074      176.919       82.163    37277.703    31300.269     6750.816       10.652        3.766      371.104       70.916        0.037      346.768       25.248      858.968
08/25/2013  17:11:00     -170.274      -67.923       13.312      148.513      119.866       68.883    22056.029    14367.820     4744.808        3.747        2.058      183.322       67.898        0.137      346.805       25.314      858.998
08/25/2013  17:12:00     -354.052     -216.699      -15.515      264.917      163.953       88.864    70180.813    26880.689     7896.729       13.873        5.248      415.104      118.867        0.082      346.741       25.203      859.020
08/25/2013  17:13:00     -258.906     -162.810       -9.241      156.866      116.211       67.470    24606.828    13504.997     4552.142        6.814        2.133      305.842       69.576        0.052      346.732       25.187      859.083
08/25/2013  17:14:00     -246.895     -258.373      -18.586      154.964      155.607       76.266    24013.707    24213.570     5816.433        9.104        2.702      357.371       61.744        0.030      346.702       25.135      859.118
08/25/2013  17:15:00     -148.706     -205.544        8.293      112.517      136.799       55.155    12660.005    18713.883     3042.102        4.942        1.721      253.696       33.106        0.017      346.667       25.075      859.089
08/25/2013  17:16:00     -277.712     -190.844       -8.450      147.638      144.632       79.765    21796.983    20918.320     6362.377        8.134        2.454      336.965       74.277        0.049      346.643       25.035      859.085
08/25/2013  17:17:00     -236.093     -125.892       -5.653      155.291      129.667       68.236    24115.440    16813.516     4656.128        5.859        2.279      267.561       66.606        0.062      346.623       25.001      859.067
08/25/2013  17:18:00     -351.809     -211.301       -2.457      196.614      147.675       85.367    38656.960    21807.803     7287.486       11.807        3.388      410.387       84.672        0.043      346.612       24.980      859.039
08/25/2013  17:19:00     -363.717     -181.314      -15.661      129.800      104.717       66.320    16848.012    10965.729     4398.315        9.880        1.611      406.405       64.846        0.025      346.657       25.058      859.083
08/25/2013  17:20:00     -110.528     -218.450        4.141      150.071      143.509       80.404    22521.418    20594.711     6464.736        5.476        2.479      244.820       84.081        0.118      346.578       24.923      859.097
08/25/2013  17:21:00     -274.322     -128.420       -7.864      180.357      166.466       82.671    32528.606    27710.972     6834.490        7.943        3.354      302.893       82.489        0.074      346.609       24.975      859.094
08/25/2013  17:22:00     -441.211     -328.224       -7.639      232.303      172.476      108.860    53964.601    29748.026    11850.441       19.899        4.778      549.907      119.812        0.047      346.549       24.874      859.072
08/25/2013  17:23:00     -494.494     -291.905      -17.133      193.582      161.565       83.245    37474.152    26103.142     6929.738       20.025        3.525      574.224       98.660        0.030      346.512       24.810      859.103
08/25/2013  17:24:00     -322.791     -206.873      -14.552      173.296      155.615       77.364    30031.668    24215.981     5985.156       10.371        3.012      383.394       84.511        0.049      346.492       24.777      859.133
08/25/2013  17:25:00     -232.826     -193.818        2.812      134.096      103.415       63.170    17981.752    10694.594     3990.457        6.222        1.633      302.942       71.834        0.056      346.494       24.780      859.139
08/25/2013  17:26:00     -399.874     -208.753        7.330      250.627      180.502       94.723    62813.991    32581.049     8972.353       15.393        5.218      451.084      105.226        0.054      346.461       24.723      859.110
08/25/2013  17:27:00     -414.032     -221.228      -12.672      172.190      135.459       79.887    29649.363    18349.276     6381.967       13.744        2.719      469.430       92.989        0.039      346.476       24.748      859.103
08/25/2013  17:28:00     -265.159     -164.764       11.753      195.520      184.258       78.457    38227.896    33950.827     6155.490        8.795        3.917      312.180       89.366        0.082      346.479       24.754      859.110
08/25/2013  17:29:00     -394.200     -198.343      -14.022      170.927      134.959       76.401    29216.020    18213.898     5837.122       12.409        2.663      441.286       59.776        0.018      346.437       24.680      859.104
08/25/2013  17:30:00     -252.786     -128.826        4.263      156.016      103.583       69.481    24340.857    10729.478     4827.572        6.020        1.995      283.720       74.305        0.069      346.398       24.613      859.091
08/25/2013  17:31:00     -306.751     -204.751      -10.660      146.146      144.564       85.063    21358.607    20898.882     7235.688        9.280        2.475      368.807       71.566        0.038      346.414       24.641      859.095
08/25/2013  17:32:00     -174.470      -42.625        0.912      158.792      105.821       68.718    25214.881    11198.110     4722.228        3.669        2.057      179.602       80.738        0.202      346.429       24.666      859.086
08/25/2013  17:33:00     -282.262     -161.185       -5.031      187.019      152.889       78.471    34976.022    23375.190     6157.713        8.508        3.225      325.042       85.429        0.069      346.425       24.661      859.093
08/25/2013  17:34:00     -178.902      -75.129       -6.731      131.896      114.561       54.648    17396.572    13124.152     2986.401        3.559        1.675      194.037       42.620        0.048      346.423       24.657      859.127
08/25/2013  17:35:00     -212.457     -151.807       -6.214       96.693       85.093       43.431     9349.583     7240.734     1886.276        4.335        0.924      261.120       39.020        0.022      346.446       24.694      859.147
08/25/2013  17:36:00     -306.785     -254.907       -7.669      188.973      146.874       85.129    35710.974    21571.965     7246.930       11.183        3.226      398.867       90.902        0.052      346.395       24.609      859.118
08/25/2013  17:37:00     -264.992     -175.661        1.859      197.675      140.546       77.423    39075.554    19753.248     5994.388        8.294        3.241      317.927       91.135        0.082      346.386       24.592      859.118
08/25/2013  17:38:00     -462.634     -334.183      -26.870      201.542      180.776       95.887    40619.240    32680.063     9194.283       20.445        4.125      570.709      103.781        0.033      346.263       24.381      859.106
08/25/2013  17:39:00     -362.349     -322.453       15.011      220.459      159.898       99.873    48602.350    25567.213     9974.687       15.980        4.207      485.049      123.525        0.065      346.272       24.396      859.118
08/25/2013  17:40:00     -397.324     -264.695       -6.462      227.669      170.598       93.587    51833.347    29103.684     8758.538       15.881        4.485      477.420       98.374        0.042      346.247       24.353      859.111
08/25/2013  17:41:00     -245.904     -142.440        2.101      210.180      132.945       74.940    44175.637    17674.481     5615.948        7.410        3.373      284.179       88.948        0.098      346.229       24.322      859.073
08/25/2013  17:42:00     -280.737     -114.985      -20.336      154.183      199.756       64.050    23772.520    39902.654     4102.379        8.010        3.389      303.372       72.814        0.058      346.249       24.358      859.046
08/25/2013  17:43:00     -284.165     -252.516        4.907      178.768      241.857       80.886    31958.086    58494.650     6542.581       12.075        4.850      380.150       99.108        0.068      346.298       24.442      859.110
08/25/2013  17:44:00     -321.632     -255.935      -15.386      184.386      174.259       76.873    33998.280    30366.282     5909.450       11.972        3.514      411.035       69.371        0.028      346.309       24.460      859.108
08/25/2013  17:45:00     -311.470     -177.772       -2.006      199.299      135.530       80.224    39719.952    18368.265     6435.850        9.656        3.226      358.631       92.449        0.066      346.311       24.466      859.097
08/25/2013  17:46:00     -199.239     -166.970        3.883      149.172      123.351       69.028    22252.419    15215.435     4764.815        5.490        2.112      259.952       78.744        0.092      346.298       24.444      859.109
08/25/2013  17:47:00     -206.792      -79.199       12.021      160.132      109.401       68.593    25642.384    11968.475     4705.022        4.574        2.116      221.439       86.273        0.152      346.300       24.446      859.111
08/25/2013  17:48:00     -325.617     -237.280      -17.185      144.785      124.390       75.518    20962.710    15472.896     5703.039       10.237        2.107      402.900       74.711        0.034      346.324       24.487      859.115
08/25/2013  17:49:00     -209.086      -66.438        7.326      160.910       94.348       57.293    25892.064     8901.627     3282.506        4.312        1.904      219.388       68.625        0.098      346.318       24.477      859.113
08/25/2013  17:50:00     -308.560     -188.363       -4.628      156.292      142.543       74.192    24427.141    20318.553     5504.497        9.047        2.513      361.510       75.197        0.043      346.319       24.478      859.110
08/25/2013  17:51:00     -344.484     -240.032      -10.076      160.337      134.454       78.941    25708.060    18077.940     6231.630       11.319        2.501      419.863       67.395        0.026      346.320       24.480      859.119
08/25/2013  17:52:00     -457.366     -358.004      -25.267      162.554      153.514       91.040    26423.943    23566.586     8288.218       19.812        2.914      580.819       77.214        0.018      346.293       24.432      859.097
08/25/2013  17:53:00     -260.756     -190.040        7.496      152.191      143.370       73.006    23162.041    20554.862     5329.893        7.660        2.452      322.659       80.295        0.062      346.329       24.496      859.135
08/25/2013  17:54:00     -198.099     -103.860       14.420      137.639       96.960       60.428    18944.367     9401.161     3651.569        4.111        1.600      223.674       58.023        0.067      346.389       24.599      859.135
08/25/2013  17:55:00     -338.591     -135.170       -9.923      142.609      114.759       60.689    20337.249    13169.691     3683.175        8.509        1.860      364.575       54.973        0.023      346.388       24.597      859.130
08/25/2013  17:56:00     -257.252     -173.647       11.723      184.652      149.809       79.395    34096.527    22442.730     6303.579        7.964        3.142      310.374       98.620        0.101      346.365       24.557      859.123
08/25/2013  17:57:00     -225.135     -170.588        3.192      139.773      111.576       70.757    19536.434    12449.218     5006.603        5.839        1.850      282.464       81.617        0.083      346.395       24.609      859.126
08/25/2013  17:58:00     -174.232     -170.327       -2.589       91.707       75.834       50.095     8410.144     5750.801     2509.473        3.802        0.834      243.656       46.280        0.036      346.461       24.719      859.140
08/25/2013  17:59:00     -255.703     -118.043       -0.212      144.848       92.977       59.345    20980.948     8644.814     3521.798        5.623        1.657      281.634       60.312        0.046      346.489       24.771      859.120
08/25/2013  18:00:00     -220.251     -100.939        8.757      144.589      119.239       69.819    20906.067    14217.844     4874.758        4.938        2.000      242.279       80.788        0.111      346.495       24.782      859.124
08/25/2013  18:01:00     -191.908     -233.930      -22.589      116.294      116.343       64.225    13524.355    13535.713     4124.871        6.162        1.559      302.575       65.208        0.046      346.449       24.702      859.109
08/25/2013  18:02:00     -199.871     -237.027        3.915      140.825      142.540       70.179    19831.565    20317.645     4925.132        7.060        2.254      310.049       77.794        0.063      346.493       24.779      859.127
08/25/2013  18:03:00     -209.787     -156.497        5.694       96.673      134.497       63.982     9345.746    18089.419     4093.647        5.003        1.576      261.729       62.656        0.057      346.527       24.836      859.151
08/25/2013  18:04:00     -187.334     -105.403        7.211      119.406      100.644       62.410    14257.729    10129.266     3895.019        3.726        1.414      214.951       67.984        0.100      346.583       24.933      859.157
08/25/2013  18:05:00     -138.104     -145.048        3.184      125.762       90.364       59.077    15815.987     8165.655     3490.143        3.379        1.374      200.279       61.917        0.096      346.552       24.880      859.158
08/25/2013  18:06:00     -156.492     -178.791        9.267      146.393      148.575       73.525    21430.879    22074.597     5405.989        5.272        2.446      237.605       72.957        0.094      346.575       24.918      859.144
08/25/2013  18:07:00     -217.796     -105.009        5.569      150.703      106.830       74.518    22711.489    11412.644     5552.898        4.908        1.984      241.789       61.960        0.066      346.592       24.949      859.149
08/25/2013  18:08:00     -120.377      -89.203        9.591      109.495      124.784       66.365    11989.091    15570.967     4404.360        2.725        1.598      149.826       71.375        0.227      346.633       25.018      859.147
08/25/2013  18:09:00     -138.177     -125.674        1.855      118.337       87.584       55.822    14003.636     7670.939     3116.070        2.984        1.240      186.781       65.214        0.122      346.620       24.997      859.158
08/25/2013  18:10:00     -104.957     -303.419        8.289       94.977      138.559       60.573     9020.676    19198.541     3669.056        6.751        1.594      321.060       43.531        0.018      346.575       24.918      859.151
08/25/2013  18:11:00     -155.007     -178.200       -7.482       84.097       80.264       43.217     7072.351     6442.285     1867.723        3.561        0.769      236.183       45.222        0.037      346.595       24.951      859.143
08/25/2013  18:12:00     -277.603     -214.921      -12.574      127.480      123.816       67.124    16251.092    15330.295     4505.622        7.974        1.804      351.076       66.817        0.036      346.551       24.876      859.132
08/25/2013  18:13:00     -184.217     -307.949      -11.557      100.098      139.533       51.593    10019.633    19469.420     2661.873        8.052        1.608      358.843       46.464        0.017      346.501       24.790      859.133
08/25/2013  18:14:00     -216.060     -362.283       -6.066      182.370      222.594      102.086    33258.698    49548.257    10421.518       13.558        4.661      421.819       75.163        0.032      346.367       24.560      859.099
08/25/2013  18:15:00     -449.482     -173.555      -37.832      173.034      129.796       71.488    29940.888    16847.099     5110.513       14.273        2.595      481.825       67.768        0.020      346.226       24.317      859.120
08/25/2013  18:16:00     -258.056      -50.670      -23.134      122.243      143.000       59.512    14943.252    20448.964     3541.737        5.431        1.947      262.984       58.821        0.050      346.220       24.305      859.116
08/25/2013  18:17:00     -144.713      -28.050       14.757      128.143       97.425       59.888    16420.591     9491.697     3586.570        2.572        1.475      147.407       73.638        0.250      346.174       24.229      859.096
08/25/2013  18:18:00     -162.349      -26.036        7.808      109.001      108.531       60.047    11881.261    11778.893     3605.702        2.718        1.363      164.424       51.677        0.099      346.168       24.218      859.105
08/25/2013  18:19:00     -164.238      -80.252        8.517      138.699      133.895       76.528    19237.276    17927.784     5856.589        3.825        2.151      182.796       72.698        0.158      346.119       24.134      859.097
08/25/2013  18:20:00     -276.861      -60.171       -2.596      145.370      141.587       72.821    21132.520    20046.889     5302.888        6.337        2.324      283.325       77.861        0.076      346.084       24.073      859.093
08/25/2013  18:21:00     -474.837      -31.513      -27.503      197.309      182.030       70.061    38930.732    33135.034     4908.541       15.208        3.849      475.882       78.522        0.027      346.073       24.054      859.074
08/25/2013  18:22:00     -304.112      -67.398      -14.016      152.237      149.340       74.234    23176.116    22302.497     5510.650        7.410        2.549      311.491       74.413        0.057      346.089       24.080      859.076
08/25/2013  18:23:00     -336.287     -113.809        1.959      176.089      148.432       82.084    31007.439    22031.959     6737.756        9.290        2.989      355.023       92.950        0.069      346.107       24.112      859.088
08/25/2013  18:24:00     -225.874     -179.461      -12.200      126.274      130.533       73.816    15945.103    17038.958     5448.824        6.090        1.922      288.488       69.701        0.058      346.133       24.158      859.104
08/25/2013  18:25:00     -283.619     -208.246       -5.738      151.967      136.819       76.527    23093.819    18719.487     5856.436        8.574        2.383      351.861       83.752        0.057      346.136       24.163      859.128
08/25/2013  18:26:00     -322.643     -206.377      -12.503      195.856      176.537       98.712    38359.418    31165.382     9744.027       11.304        3.963      383.001      107.980        0.079      346.152       24.191      859.102
08/25/2013  18:27:00     -540.280     -317.927      -15.723      234.421      161.903      106.709    54953.229    26212.703    11386.737       24.287        4.628      626.881      102.798        0.027      346.163       24.210      859.102
08/25/2013  18:28:00     -175.484     -295.941       22.905      185.102      196.469      104.865    34262.737    38600.210    10996.623       10.136        4.193      344.058       93.585        0.074      346.173       24.228      859.139
08/25/2013  18:29:00     -368.239     -306.747       -1.386      225.638      172.710      105.415    50912.374    29828.845    11112.232       16.076        4.593      479.264      107.724        0.051      346.168       24.217      859.109
08/25/2013  18:30:00     -436.204     -213.941      -16.115      175.093      156.508       95.288    30657.574    24494.651     9079.765       15.025        3.212      485.844       91.668        0.036      346.144       24.176      859.093
08/25/2013  18:31:00     -396.892     -277.885        1.871      220.521      181.028      100.006    48629.462    32771.160    10001.139       16.306        4.570      484.504      109.494        0.051      346.142       24.173      859.116
08/25/2013  18:32:00     -293.637     -300.938      -28.720      161.879      172.065       78.806    26204.901    29606.376     6210.367       11.980        3.101      420.459       81.828        0.038      346.184       24.245      859.104
08/25/2013  18:33:00     -261.182     -175.360       -2.868      160.604      111.171       64.430    25793.599    12359.064     4151.210        7.063        2.115      314.591       66.992        0.045      346.198       24.268      859.088
08/25/2013  18:34:00     -218.988     -131.420      -12.138      144.435      142.154       63.431    20861.547    20207.770     4023.464        5.522        2.255      255.396       72.614        0.081      346.208       24.288      859.087
08/25/2013  18:35:00     -309.011     -164.613        1.767      145.659      113.050       80.574    21216.514    12780.242     6492.155        8.153        2.024      350.122       81.493        0.054      346.199       24.270      859.082
08/25/2013  18:36:00     -277.961     -108.029        3.628      183.134      118.099       61.653    33538.068    13947.414     3801.060        7.011        2.564      298.215       77.144        0.067      346.223       24.311      859.089
08/25/2013  18:37:00     -238.714     -166.750       -2.053      124.137       99.041       65.206    15409.881     9809.104     4251.842        5.713        1.474      291.187       66.610        0.052      346.211       24.291      859.070
08/25/2013  18:38:00     -345.652     -237.138      -27.324      162.971      118.806       72.846    26559.445    14114.825     5306.468       11.121        2.299      419.178       43.428        0.011      346.210       24.288      859.081
08/25/2013  18:39:00     -341.905     -237.142      -11.214      163.092      146.128       73.209    26598.974    21353.350     5359.586       11.328        2.666      416.096       75.629        0.033      346.184       24.245      859.079
08/25/2013  18:40:00     -317.299     -137.705       -4.238      159.043      125.379       62.797    25294.726    15719.815     3943.498        8.230        2.248      345.892       59.016        0.029      346.196       24.265      859.080
08/25/2013  18:41:00     -292.868     -148.165      -15.506      155.551      156.977       76.023    24196.147    24641.660     5779.482        8.128        2.731      328.214       84.349        0.066      346.208       24.288      859.084
08/25/2013  18:42:00     -269.002     -136.084        0.896      203.858      125.265       73.999    41558.183    15691.223     5475.779        7.679        3.136      301.465       92.735        0.095      346.191       24.256      859.063
08/25/2013  18:43:00     -151.216      -75.118       26.066      160.195       99.834       83.440    25662.503     9966.870     6962.275        3.588        2.130      168.846       98.025        0.337      346.231       24.327      859.066
08/25/2013  18:44:00     -434.348     -104.308      -16.730      217.561      155.708       80.829    47332.711    24244.857     6533.350       13.895        3.906      446.697      103.356        0.054      346.143       24.175      859.052
08/25/2013  18:45:00     -269.411      -84.253        8.286      160.127      113.565       61.757    25640.726    12897.049     3813.912        6.104        2.118      282.278       55.689        0.039      346.159       24.203      859.091
08/25/2013  18:46:00     -269.639     -183.646       -7.582      122.633      127.089       63.141    15038.752    16151.721     3986.830        7.083        1.759      326.237       59.662        0.033      346.107       24.112      859.113
08/25/2013  18:47:00     -370.265     -223.677       -9.036      196.497      160.855       90.029    38611.258    25874.382     8105.234       12.989        3.630      432.583       95.665        0.049      346.084       24.074      859.112
08/25/2013  18:48:00     -254.358     -114.710       -9.380      117.503       92.530       57.081    13807.044     8561.751     3258.201        5.178        1.281      279.028       59.566        0.046      346.092       24.085      859.045
08/25/2013  18:49:00     -376.829     -105.866      -19.974      228.130      118.609       71.036    52043.518    14068.061     5046.104       11.237        3.558      391.418       79.191        0.041      346.011       23.950      859.091
08/25/2013  18:50:00     -328.796     -131.268        8.445      162.643      132.596       78.356    26452.826    17581.597     6139.717        8.778        2.509      354.031       87.294        0.061      346.026       23.976      859.093
08/25/2013  18:51:00     -332.580     -127.895      -12.603      176.759      146.119       71.672    31243.569    21350.618     5136.902        9.242        2.887      356.324       75.784        0.045      345.975       23.887      859.059
08/25/2013  18:52:00     -270.737     -190.504       -2.542      168.737      116.354       76.711    28472.030    13538.307     5884.639        7.874        2.395      331.044       77.042        0.054      345.962       23.865      859.076
08/25/2013  18:53:00     -230.109     -122.619      -18.751      121.633      121.429       64.485    14794.603    14744.882     4158.297        5.101        1.685      260.741       63.647        0.060      345.982       23.899      859.095
08/25/2013  18:54:00     -266.742      -34.362       -7.252      169.501      118.365       74.803    28730.518    14010.257     5595.475        6.035        2.417      268.947       83.774        0.097      345.984       23.903      859.080
08/25/2013  18:55:00     -235.061     -170.633       11.380      178.209      153.603       73.728    31758.295    23593.965     5435.759        7.263        3.039      290.464       87.438        0.091      345.950       23.846      859.069
08/25/2013  18:56:00     -237.182      -81.106        8.301      203.944      131.368       69.064    41592.981    17257.521     4769.843        6.325        3.181      250.666       94.803        0.143      345.946       23.838      859.076
08/25/2013  18:57:00     -340.162      -71.422       -5.240      152.524      138.806       66.191    23263.435    19267.115     4381.289        8.387        2.346      347.579       74.029        0.045      345.969       23.877      859.103
08/25/2013  18:58:00     -253.580     -164.069      -11.634      134.097      117.123       75.169    17981.973    13717.819     5650.354        6.435        1.868      302.029       76.255        0.064      345.966       23.871      859.117
08/25/2013  18:59:00     -157.975     -111.966       21.192      157.337      109.297       70.229    24755.005    11945.915     4932.174        3.978        2.082      193.629       90.957        0.221      345.969       23.878      859.136
08/25/2013  19:00:00     -192.992     -187.980        7.352      131.777      109.555       79.701    17365.297    12002.399     6352.285        5.417        1.786      269.411       82.194        0.093      345.947       23.839      859.140
08/25/2013  19:01:00     -245.328     -172.177       -7.327      142.193      100.553       53.830    20218.754    10110.927     2897.635        6.155        1.661      299.718       74.199        0.061      345.928       23.806      859.147
08/25/2013  19:02:00     -233.062      -72.140       -5.505       98.044      135.013       58.365     9612.532    18228.388     3406.456        4.539        1.562      243.972       55.011        0.051      345.933       23.813      859.159
08/25/2013  19:03:00     -232.330     -106.492        6.367      162.441      106.452       69.544    26387.240    11331.992     4836.416        5.395        2.128      255.573       77.265        0.091      345.906       23.768      859.165
08/25/2013  19:04:00     -201.190     -122.808        0.029      175.282      128.458       66.678    30723.916    16501.465     4445.914        5.360        2.584      235.710       73.218        0.096      345.899       23.758      859.183
08/25/2013  19:05:00     -242.526     -188.581        1.287      147.362      122.489       65.762    21715.700    15003.629     4324.703        6.771        2.052      307.216       60.453        0.039      345.882       23.728      859.215
08/25/2013  19:06:00     -247.804      -88.408       -3.115      103.951      100.240       51.312    10805.883    10048.124     2632.923        4.636        1.174      263.103       51.854        0.039      345.858       23.687      859.265
08/25/2013  19:07:00     -248.018     -116.038      -12.077      113.056       99.151       55.769    12781.564     9830.929     3110.189        5.042        1.286      273.821       53.238        0.038      345.840       23.656      859.287
08/25/2013  19:08:00     -222.505     -145.406       13.802      141.094      105.581       66.551    19907.520    11147.258     4428.974        5.316        1.774      265.803       66.905        0.063      345.802       23.591      859.290
08/25/2013  19:09:00     -191.177     -200.081       -0.777      110.543      113.492       61.236    12219.734    12880.453     3749.843        5.271        1.443      276.733       57.201        0.043      345.803       23.591      859.297
08/25/2013  19:10:00     -221.151      -17.786        0.392      164.691       85.483       54.320    27123.164     7307.404     2950.621        4.330        1.869      221.865       72.514        0.107      345.787       23.566      859.286
08/25/2013  19:11:00     -156.846      -88.982        6.700      110.541       92.043       55.848    12219.268     8471.976     3119.034        2.818        1.191      180.329       57.930        0.103      345.745       23.493      859.294
08/25/2013  19:12:00     -273.157      -97.945        0.418      144.627      127.123       70.275    20916.829    16160.250     4938.609        6.310        2.101      290.186       63.559        0.048      345.756       23.511      859.300
08/25/2013  19:13:00     -303.780     -164.960      -30.653      156.773      127.960       62.035    24577.799    16373.794     3848.340        8.261        2.240      345.680       49.527        0.021      345.783       23.556      859.318
08/25/2013  19:14:00     -186.335     -166.274        3.063      181.023      143.300       75.575    32769.406    20534.850     5711.535        6.068        2.951      249.736       96.861        0.150      345.764       23.524      859.324
08/25/2013  19:15:00     -269.920     -149.030      -11.501      161.265      139.151       77.537    26006.512    19363.112     6011.961        7.328        2.569      308.329       70.653        0.053      345.732       23.469      859.334
08/25/2013  19:16:00     -326.435     -189.467       -0.681      176.475      143.520       79.537    31143.415    20598.095     6326.192       10.025        2.903      377.435       82.084        0.047      345.751       23.503      859.350
08/25/2013  19:17:00     -211.218     -141.353        2.540      121.573      127.081       63.529    14779.899    16149.644     4035.934        4.978        1.748      254.153       62.183        0.060      345.722       23.452      859.356
08/25/2013  19:18:00     -276.490     -236.853       -9.725      133.116      116.548       68.773    17719.938    13583.378     4729.680        8.433        1.802      364.069       64.634        0.032      345.713       23.438      859.394
08/25/2013  19:19:00     -315.757     -158.430       -1.446      163.352      168.480       67.820    26683.816    28385.462     4599.503        9.222        2.983      353.274       80.470        0.052      345.707       23.428      859.392
08/25/2013  19:20:00     -255.878     -153.819       -4.465      151.285      126.166       73.846    22887.013    15917.906     5453.223        6.670        2.213      298.553       76.691        0.066      345.671       23.365      859.410
08/25/2013  19:21:00     -282.960     -146.133       -0.598      143.479      124.494       64.327    20586.323    15498.763     4137.905        7.081        2.011      318.467       65.331        0.042      345.689       23.398      859.410
08/25/2013  19:22:00     -344.279     -245.198        0.570      152.884      129.842       74.274    23373.379    16859.031     5516.564       11.219        2.287      422.670       75.773        0.032      345.667       23.357      859.408
08/25/2013  19:23:00     -293.694     -152.252       -9.998      153.125      106.276       51.889    23447.380    11294.553     2692.488        7.348        1.872      330.812       41.365        0.016      345.653       23.331      859.443
08/25/2013  19:24:00     -232.314     -109.326       -5.348      126.802      109.369       59.125    16078.658    11961.668     3495.748        4.874        1.577      256.753       49.150        0.037      345.607       23.254      859.459
08/25/2013  19:25:00     -300.046     -149.204        2.275      128.516      141.199       74.305    16516.301    19937.150     5521.173        7.713        2.099      335.096       86.344        0.066      345.613       23.263      859.486
08/25/2013  19:26:00     -269.242     -238.109       -4.204      126.474      150.578       78.933    15995.780    22673.821     6230.402        8.704        2.245      359.426       75.531        0.044      345.612       23.262      859.492
08/25/2013  19:27:00     -257.983     -128.706       -7.710      123.169       90.933       56.049    15170.626     8268.891     3141.457        5.488        1.329      288.306       58.076        0.041      345.596       23.235      859.483
08/25/2013  19:28:00     -211.199     -102.265        8.350      121.018      109.901       61.704    14645.371    12078.215     3807.435        4.283        1.527      234.656       61.562        0.069      345.579       23.204      859.479
08/25/2013  19:29:00     -235.409      -74.133        2.219      121.599       75.396       46.029    14786.403     5684.632     2118.688        4.175        1.129      246.805       47.907        0.038      345.555       23.165      859.509
08/25/2013  19:30:00     -204.447      -77.741        0.723      112.384       64.060       44.368    12630.064     4103.685     1968.537        3.327        0.935      218.728       44.897        0.042      345.536       23.134      859.531
08/25/2013  19:31:00     -200.065     -140.510       -4.813       90.913      111.065       47.289     8265.209    12335.418     2236.214        4.131        1.142      244.477       55.916        0.052      345.507       23.085      859.558
08/25/2013  19:32:00     -207.104     -141.381      -16.049      121.713       66.961       50.091    14814.079     4483.838     2509.149        4.247        1.090      250.760       49.042        0.038      345.480       23.037      859.566
08/25/2013  19:33:00     -327.234      -73.432       -9.761      152.661      112.234       62.356    23305.270    12596.421     3888.270        7.617        1.989      335.372       73.314        0.048      345.425       22.943      859.570
08/25/2013  19:34:00     -306.404     -109.098      -10.594      168.215      164.012       62.603    28296.426    26899.935     3919.179        8.249        2.956      325.248       72.038        0.049      345.424       22.942      859.568
08/25/2013  19:35:00     -368.677      -99.927      -24.446      227.303      160.722       81.254    51666.555    25831.427     6602.221       11.529        4.205      381.980      107.759        0.080      345.394       22.891      859.556
08/25/2013  19:36:00     -225.602      -59.516       -5.047      127.098       76.238       51.503    16153.975     5812.181     2652.582        3.954        1.231      233.320       63.738        0.075      345.432       22.954      859.601
08/25/2013  19:37:00     -236.494      -72.085        0.134      113.288      129.966       59.568    12834.261    16891.134     3548.291        4.719        1.664      247.236       60.441        0.060      345.415       22.927      859.634
08/25/2013  19:38:00     -204.377      -31.674       -8.558      104.616       71.233       41.883    10944.539     5074.171     1754.200        3.031        0.889      206.817       45.550        0.049      345.332       22.784      859.644
08/25/2013  19:39:00     -251.066      -97.855      -15.518       97.214       70.226       48.430     9450.620     4931.731     2345.463        4.479        0.836      269.461       48.942        0.033      345.367       22.843      859.642
08/25/2013  19:40:00     -167.628      -84.648       -9.418      112.106       94.286       53.281    12567.852     8889.786     2838.844        2.982        1.215      187.788       54.643        0.085      345.310       22.747      859.649
08/25/2013  19:41:00     -167.120      -83.225       12.512      101.570      121.883       58.009    10316.497    14855.526     3365.063        3.177        1.427      186.696       54.544        0.085      345.269       22.676      859.686
08/25/2013  19:42:00     -240.807      -34.166        2.029      142.225      124.861       61.440    20228.046    15590.150     3774.900        4.937        1.980      243.219       61.673        0.064      345.287       22.706      859.695
08/25/2013  19:43:00     -248.696     -125.315        7.142      189.790      106.054       68.281    36020.381    11247.428     4662.274        6.476        2.597      278.484       76.157        0.075      345.311       22.748      859.705
08/25/2013  19:44:00     -301.710     -101.083       -8.179      146.597       78.733       56.016    21490.805     6198.954     3137.752        6.606        1.541      318.193       60.518        0.036      345.300       22.728      859.729
08/25/2013  19:45:00     -255.500     -144.114        9.681      210.654      109.835       77.507    44375.270    12063.813     6007.368        7.428        3.122      293.341       99.042        0.114      345.272       22.680      859.747
08/25/2013  19:46:00     -388.606     -134.841       -9.809      148.959      114.720       61.307    22188.780    13160.617     3758.581       10.419        1.955      411.335       70.197        0.029      345.297       22.723      859.776
08/25/2013  19:47:00     -177.109      -52.417        3.931      101.522       74.942       45.895    10306.803     5616.281     2106.347        2.608        0.901      184.703       37.954        0.042      345.220       22.592      859.795
08/25/2013  19:48:00     -119.800      -43.078        2.984       79.704       75.830       54.942     6352.731     5750.160     3018.583        1.567        0.756      127.310       46.183        0.132      345.231       22.612      859.802
08/25/2013  19:49:00     -243.292        9.736      -11.665      144.215       78.056       58.256    20797.934     6092.715     3393.729        4.485        1.514      243.487       61.533        0.064      345.224       22.599      859.810
08/25/2013  19:50:00     -192.837     -115.301       -0.537      115.446      135.789       57.806    13327.840    18438.695     3341.499        4.279        1.755      224.679       57.922        0.066      345.202       22.561      859.802
08/25/2013  19:51:00     -174.392      -85.699      -13.668      118.457      112.886       54.797    14031.986    12743.273     3002.735        3.385        1.489      194.311       57.520        0.088      345.188       22.536      859.793
08/25/2013  19:52:00     -209.278     -115.018       -3.074      134.813       92.436       56.469    18174.618     8544.483     3188.726        4.347        1.495      238.802       65.134        0.074      345.202       22.560      859.805
08/25/2013  19:53:00     -361.649     -140.521      -39.416      160.113      158.280       75.183    25636.133    25052.643     5652.456       10.420        2.817      387.990       73.791        0.036      345.279       22.693      859.821
08/25/2013  19:54:00     -262.946     -138.097      -19.517      151.162       98.874       60.187    22850.101     9776.004     3622.435        6.241        1.812      297.004       58.622        0.039      345.214       22.581      859.852
08/25/2013  19:55:00     -302.402     -181.706       -5.212      138.931      139.160       77.825    19301.730    19365.541     6056.736        8.460        2.236      352.794       71.724        0.041      345.269       22.675      859.865
08/25/2013  19:56:00     -224.319     -128.124       -6.277       98.211      110.229       51.626     9645.323    12150.412     2665.243        4.561        1.223      258.331       52.474        0.041      345.294       22.719      859.893
08/25/2013  19:57:00     -130.750      -66.139       16.882      101.871       71.393       53.573    10377.686     5096.889     2870.094        2.005        0.917      146.526       52.554        0.129      345.192       22.545      859.948
08/25/2013  19:58:00     -254.485      -77.469       -1.636      102.995       86.859       58.543    10607.883     7544.415     3427.302        4.617        1.079      266.015       52.921        0.040      345.221       22.592      859.969
08/25/2013  19:59:00     -305.392     -168.832      -15.425       93.681       96.037       47.403     8776.150     9223.120     2247.044        7.112        1.012      348.953       44.119        0.016      345.231       22.609      859.978
08/25/2013  20:00:00     -227.677     -131.626       -1.015      163.919      105.117       52.158    26869.465    11049.530     2720.449        5.489        2.032      262.987       62.256        0.056      345.170       22.507      859.978
08/25/2013  20:01:00     -213.450      -80.673       -0.409      105.645       79.323       43.766    11160.762     6292.170     1915.449        3.571        0.968      228.187       52.071        0.052      345.137       22.449      859.982
08/25/2013  20:02:00     -130.523      -52.675       11.104       91.054       76.655       39.083     8290.906     5875.984     1527.481        1.781        0.785      140.751       50.378        0.128      345.077       22.348      860.001
08/25/2013  20:03:00     -221.466     -142.554      -17.097       98.041       93.508       49.514     9611.981     8743.806     2451.597        4.523        1.040      263.380       47.557        0.033      345.108       22.400      859.998
08/25/2013  20:04:00     -170.477      -49.040        0.784      136.251       86.851       51.448    18564.401     7543.119     2646.941        3.011        1.438      177.390       67.388        0.144      345.026       22.262      859.988
08/25/2013  20:05:00     -250.500      -94.525       -8.136      145.123      109.848       51.815    21060.593    12066.496     2684.788        5.377        1.791      267.741       61.644        0.053      345.054       22.307      859.987
08/25/2013  20:06:00     -214.534     -108.370       -5.114      120.401       97.971       48.806    14496.482     9598.329     2382.013        4.213        1.324      240.351       50.577        0.044      345.030       22.267      859.992
08/25/2013  20:07:00     -227.426      -77.395       -6.478      146.291       98.756       60.101    21401.190     9752.677     3612.080        4.625        1.738      240.234       73.397        0.093      345.077       22.347      860.002
08/25/2013  20:08:00     -250.725     -118.983      -15.401      149.886      102.857       58.552    22465.851    10579.496     3428.362        5.686        1.824      277.525       73.777        0.071      345.046       22.295      859.997
08/25/2013  20:09:00     -193.684     -105.735        7.239      128.321       83.683       56.869    16466.272     7002.843     3234.119        3.772        1.335      220.665       61.472        0.078      345.031       22.268      859.987
08/25/2013  20:10:00     -231.263     -115.727       -7.962       92.421       99.462       52.071     8541.612     9892.771     2711.397        4.404        1.057      258.603       40.412        0.024      345.014       22.239      859.982
08/25/2013  20:11:00     -269.916      -36.308      -14.388      118.677       76.259       53.205    14084.171     5815.464     2830.769        4.855        1.137      272.347       60.729        0.050      344.988       22.196      859.984
08/25/2013  20:12:00     -172.918     -131.521      -11.900      107.554       66.085       40.721    11567.767     4367.243     1658.197        3.246        0.880      217.252       40.190        0.034      345.012       22.237      859.995
08/25/2013  20:13:00     -228.148     -153.187       -0.041      140.821      101.232       53.526    19830.478    10247.993     2865.034        5.422        1.647      274.805       55.286        0.040      344.983       22.186      860.017
08/25/2013  20:14:00     -222.175     -115.367        9.882      122.059      121.738       64.614    14898.280    14820.045     4174.932        4.832        1.695      250.342       66.035        0.070      344.952       22.133      860.011
08/25/2013  20:15:00     -238.221     -137.444       -9.838      107.781       81.690       48.355    11616.728     6673.215     2338.172        4.818        1.031      275.028       47.280        0.030      344.946       22.122      860.009
08/25/2013  20:16:00     -314.446     -163.142      -17.006      104.394       88.174       50.444    10898.027     7774.589     2544.581        7.349        1.061      354.248       48.921        0.019      344.990       22.197      860.018
08/25/2013  20:17:00     -284.401     -185.671      -10.312      118.208       92.019       54.101    13973.034     8467.513     2926.884        7.041        1.268      339.643       53.693        0.025      344.974       22.169      860.036
08/25/2013  20:18:00     -240.736     -108.768       -0.539      141.164      130.734       65.255    19927.151    17091.390     4258.268        5.552        2.064      264.168       83.163        0.099      344.932       22.100      860.053
08/25/2013  20:19:00     -223.117     -137.110        2.788      129.676      103.443       57.627    16815.934    10700.493     3320.877        4.971        1.542      261.879       67.931        0.067      344.948       22.124      860.063
08/25/2013  20:20:00     -384.804     -122.271      -26.927      153.431      108.501       59.104    23541.108    11772.441     3493.307       10.127        1.940      403.763       56.594        0.020      344.964       22.153      860.070
08/25/2013  20:21:00     -281.690     -150.195       -6.976      144.267      128.530       70.685    20813.069    16519.973     4996.383        7.213        2.116      319.230       84.904        0.071      344.921       22.080      860.069
08/25/2013  20:22:00     -117.940      -40.947       11.094      104.645       81.548       53.125    10950.503     6649.996     2822.242        1.806        1.021      124.845       48.335        0.150      344.818       21.905      860.082
08/25/2013  20:23:00     -127.625      -28.397       -8.661       61.828       67.235       38.051     3822.683     4520.482     1447.884        1.348        0.490      130.746       32.371        0.061      344.814       21.898      860.123
08/25/2013  20:24:00      -52.070      -61.566       19.624       78.335       65.105       37.273     6136.371     4238.654     1389.271        0.932        0.588       80.633       42.697        0.280      344.765       21.815      860.156
08/25/2013  20:25:00     -204.092     -172.784      -15.888       48.443       48.891       38.196     2346.676     2390.326     1458.911        3.898        0.310      267.410       27.250        0.010      344.832       21.924      860.156
08/25/2013  20:26:00     -168.023      -61.344       -9.647       82.617       88.913       36.090     6825.558     7905.583     1302.465        2.406        0.802      178.870       43.361        0.059      344.804       21.880      860.167
08/25/2013  20:27:00      -92.659      -53.508        2.304       92.040       42.998       28.927     8471.391     1848.815      836.780        1.130        0.558      106.999       26.286        0.060      344.775       21.832      860.185
08/25/2013  20:28:00     -138.473      -74.904        3.307       63.421       46.407       34.417     4022.264     2153.615     1184.525        1.608        0.368      157.434       29.061        0.034      344.762       21.808      860.212
08/25/2013  20:29:00      -79.267      -60.182        7.367       73.979       39.699       26.455     5472.845     1575.983      699.859        0.885        0.387       99.524       17.669        0.032      344.759       21.805      860.228
08/25/2013  20:30:00      -27.946      -73.963       13.916       41.606       50.896       21.560     1731.068     2590.360      464.838        0.561        0.239       79.067       20.594        0.068      344.734       21.761      860.218
08/25/2013  20:31:00     -115.852      -14.766      -13.831       23.986       23.715       14.971      575.333      562.382      224.119        0.760        0.068      116.790        9.321        0.006      344.759       21.803      860.218
08/25/2013  20:32:00     -136.030      -40.789      -12.100       31.755       48.645       26.131     1008.357     2366.383      682.833        1.219        0.203      142.013       19.905        0.020      344.706       21.713      860.223
08/25/2013  20:33:00      -75.276      -53.846        4.776       50.291       45.560       18.948     2529.224     2075.697      359.021        0.678        0.248       92.552       25.614        0.077      344.631       21.589      860.238
08/25/2013  20:34:00     -114.667      -67.084       10.729       90.541       87.459       47.040     8197.710     7649.003     2212.744        1.791        0.903      132.849       54.577        0.169      344.644       21.608      860.240
08/25/2013  20:35:00     -127.309      -24.918       -3.907       64.322       57.983       32.249     4137.383     3362.001     1039.971        1.269        0.427      129.725       32.642        0.063      344.638       21.598      860.252
08/25/2013  20:36:00     -136.435      -17.830       -0.395       72.542       47.007       34.169     5262.320     2209.685     1167.501        1.378        0.432      137.596       40.078        0.085      344.584       21.507      860.268
08/25/2013  20:37:00      -53.835      -30.639       10.741       65.524       51.417       37.775     4293.331     2643.752     1426.927        0.616        0.418       61.944       37.477        0.366      344.580       21.500      860.282
08/25/2013  20:38:00      -84.863      -24.241       -6.051       31.636       28.751       17.934     1000.865      826.648      321.639        0.499        0.107       88.258       15.793        0.032      344.556       21.458      860.294
08/25/2013  20:39:00     -104.135      -54.016        4.490       76.043       60.562       38.842     5782.494     3667.787     1508.694        1.237        0.548      117.310       38.473        0.108      344.571       21.484      860.298
08/25/2013  20:40:00     -168.610     -115.824       -0.673      103.815       76.179       41.842    10777.586     5803.203     1750.764        3.008        0.917      204.559       44.225        0.047      344.549       21.442      860.307
08/25/2013  20:41:00      -93.952      -43.774        6.804       77.963       65.639       40.684     6078.183     4308.477     1655.223        1.141        0.602      103.649       35.191        0.115      344.472       21.314      860.312
08/25/2013  20:42:00     -132.479       -0.748       -1.677       66.667       74.543       32.042     4444.435     5556.663     1026.701        1.429        0.551      132.481       34.102        0.066      344.471       21.312      860.323
08/25/2013  20:43:00     -128.037      -22.718       -4.842       66.572       68.337       38.148     4431.853     4669.943     1455.249        1.374        0.528      130.036       34.156        0.069      344.495       21.354      860.349
08/25/2013  20:44:00     -136.022        1.725       -1.526       77.846       66.146       40.866     6060.073     4375.327     1670.013        1.530        0.605      136.033       38.984        0.082      344.512       21.384      860.361
08/25/2013  20:45:00      -90.525        2.190       14.015       43.682       46.835       30.233     1908.118     2193.491      914.041        0.670        0.251       90.552       28.270        0.097      344.470       21.311      860.376
08/25/2013  20:46:00      -42.131      -50.877        0.775       40.524       38.401       20.856     1642.154     1474.610      434.968        0.396        0.178       66.056       19.444        0.087      344.481       21.332      860.404
08/25/2013  20:47:00      -90.712      -50.185       -1.424       68.158       57.835       34.385     4645.569     3344.903     1182.352        0.996        0.459      103.669       38.992        0.141      344.491       21.346      860.405
08/25/2013  20:48:00     -151.194      -54.218        0.245       64.649       81.938       36.746     4179.473     6713.904     1350.276        1.902        0.612      160.622       29.485        0.034      344.534       21.420      860.401
08/25/2013  20:49:00      -28.929      -22.002       15.053       46.699       39.757       32.328     2180.833     1580.632     1045.096        0.318        0.240       36.345       25.535        0.494      344.416       21.219      860.424
08/25/2013  20:50:00      -59.567       33.561        1.606       40.509       51.277       26.330     1640.977     2629.382      693.287        0.482        0.248       68.371       21.582        0.100      344.368       21.137      860.444
08/25/2013  20:51:00      -39.071      -53.390        3.211       57.628       36.181       22.631     3320.995     1309.063      512.179        0.476        0.257       66.159       23.215        0.123      344.419       21.224      860.482
08/25/2013  20:52:00      -30.227     -109.390       20.331       40.286       70.305       24.921     1622.949     4942.809      621.065        1.024        0.359      113.489       25.492        0.050      344.465       21.303      860.511
08/25/2013  20:53:00      -71.724      -78.500       -1.347       69.598       68.920       28.147     4843.836     4750.031      792.278        1.085        0.519      106.332       12.485        0.014      344.481       21.330      860.497
08/25/2013  20:54:00       17.386      -14.902        2.798       28.679       22.922       27.558      822.467      525.400      759.470        0.132        0.105       22.899       20.787        0.824      344.011       20.529      860.489
08/25/2013  20:55:00       44.239        0.554       -1.088       26.271       31.276       31.321      690.159      978.161      981.025        0.230        0.132       44.242       15.372        0.121      343.774       20.122      860.499
08/25/2013  20:56:00       23.392       30.339       24.111       17.308       19.216       14.628      299.574      369.245      213.978        0.147        0.044       38.310        8.338        0.047      343.729       20.045      860.496
08/25/2013  20:57:00       -2.006       12.759       -0.738       18.289       10.943       17.528      334.494      119.746      307.224        0.046        0.038       12.915        7.272        0.317      344.079       20.642      860.515
08/25/2013  20:58:00       13.839      -20.239        7.894       21.070       25.419       20.605      443.954      646.125      424.559        0.109        0.076       24.518       13.423        0.300      344.137       20.744      860.547
08/25/2013  20:59:00       -1.721      -60.788        4.000       52.241       46.713       32.462     2729.096     2182.083     1053.808        0.484        0.298       60.813       25.994        0.183      344.128       20.727      860.572
08/25/2013  21:00:00     -105.454      -13.122      -37.860      105.816      133.797       55.202    11196.928    17901.661     3047.290        2.243        1.607      106.267       49.621        0.218      344.530       21.413      860.571
08/25/2013  21:01:00      -10.443      -73.193       11.000       35.394       63.977       40.067     1252.738     4093.028     1605.368        0.627        0.348       73.934       40.588        0.301      344.309       21.036      860.608
08/25/2013  21:02:00        4.569       -6.345        6.931       12.304       15.856       10.871      151.382      251.419      118.179        0.031        0.026        7.819        8.572        1.202      344.263       20.957      860.622
08/25/2013  21:03:00       -1.992       -3.930       20.014       20.028       30.365       20.008      401.117      922.045      400.332        0.107        0.086        4.406       19.533       19.656      344.152       20.767      860.622
08/25/2013  21:04:00       41.866      -45.461       16.001       30.092       50.811       28.350      905.541     2581.775      803.749        0.418        0.215       61.801       32.844        0.282      343.995       20.500      860.627
08/25/2013  21:05:00       73.846      -82.160       16.500       56.907       73.890       35.537     3238.442     5459.797     1262.882        1.122        0.498      110.470       40.532        0.135      344.176       20.808      860.677
08/25/2013  21:06:00       72.739     -105.699      -14.714       58.710       54.712       46.231     3446.860     2993.420     2137.260        1.263        0.429      128.309       36.468        0.081      344.180       20.814      860.693
08/25/2013  21:07:00       31.456      -26.442       15.903       46.672       49.406       43.846     2178.266     2440.945     1922.443        0.424        0.327       41.093       35.769        0.758      343.997       20.504      860.712
08/25/2013  21:08:00       18.883      -36.508       21.682       58.305       68.967       33.805     3399.458     4756.403     1142.783        0.573        0.465       41.103       41.891        1.039      344.071       20.629      860.726
08/25/2013  21:09:00       24.554      -43.523       10.170       40.956       36.673       38.294     1677.409     1344.889     1466.402        0.354        0.224       49.971       29.816        0.356      343.917       20.367      860.734
08/25/2013  21:10:00       25.930      -62.733        5.081       34.884       57.547       39.632     1216.881     3311.630     1570.658        0.537        0.305       67.881       31.172        0.211      344.074       20.636      860.742
08/25/2013  21:11:00        4.886      -31.027       29.068       21.477       31.601       27.123      461.251      998.646      735.677        0.201        0.110       31.409       13.091        0.174      343.982       20.476      860.759
08/25/2013  21:12:00       -2.960       14.569       34.347       19.903       30.915       21.213      396.137      955.735      449.973        0.160        0.090       14.866       20.703        1.939      343.903       20.341      860.765
08/25/2013  21:13:00       19.011      -39.707       17.854       28.370       33.349       24.773      804.842     1112.131      613.710        0.239        0.127       44.024       18.064        0.168      344.120       20.714      860.757
08/25/2013  21:14:00      -12.668      -68.823        6.813       19.145       25.231       17.475      366.514      636.594      305.372        0.313        0.065       69.979       10.090        0.021      344.376       21.149      860.773
08/25/2013  21:15:00      -31.137      -38.324        8.581       41.571       38.633       23.316     1728.149     1492.485      543.625        0.314        0.188       49.379       25.450        0.266      344.198       20.847      860.793
08/25/2013  21:16:00      -43.761      -39.068       -2.308       32.727       24.523       21.416     1071.061      601.397      458.631        0.279        0.107       58.663       16.400        0.078      344.226       20.895      860.810
08/25/2013  21:17:00      -48.961      -73.696        0.568       25.370       31.145       17.430      643.635      970.031      303.818        0.487        0.096       88.478       11.054        0.016      344.332       21.076      860.838
08/25/2013  21:18:00      -59.229      -86.506        4.154       34.215       35.036       25.789     1170.665     1227.497      665.064        0.704        0.153      104.840       21.816        0.043      344.280       20.987      860.852
08/25/2013  21:19:00      -44.508     -152.034       -4.504       29.806       37.587       19.017      888.384     1412.796      361.659        1.389        0.133      158.415       12.740        0.006      344.391       21.175      860.863
08/25/2013  21:20:00      -16.543      -49.137        2.616       40.037       53.164       23.816     1602.931     2826.398      567.201        0.384        0.250       51.847       19.109        0.136      344.241       20.920      860.872
08/25/2013  21:21:00        3.301      -52.066        2.430       33.003       53.216       38.822     1089.225     2831.963     1507.186        0.408        0.271       52.170       33.868        0.421      343.964       20.446      860.858
08/25/2013  21:22:00      -37.076      -29.193       20.222       31.251       48.695       39.006      976.599     2371.182     1521.433        0.375        0.243       47.189       27.556        0.341      344.067       20.623      860.861
08/25/2013  21:23:00      -41.017      -30.934        7.078       37.105       38.382       15.825     1376.774     1473.198      250.418        0.289        0.155       51.374       17.935        0.122      344.146       20.759      860.884
08/25/2013  21:24:00      -78.886     -116.854      -14.973       52.622       38.115       32.732     2769.046     1452.775     1071.381        1.270        0.265      140.989       28.827        0.042      344.260       20.953      860.874
08/25/2013  21:25:00       -8.434      -20.604       15.999       28.222       32.452       22.652      796.485     1053.153      513.123        0.156        0.118       22.263       22.058        0.982      344.085       20.653      860.869
08/25/2013  21:26:00      -73.701      -11.778       11.926       31.427       33.488       20.475      987.681     1121.441      419.243        0.412        0.126       74.636        7.038        0.009      344.145       20.756      860.886
08/25/2013  21:27:00      -51.764      -54.564       -3.116       48.268       30.922       18.018     2329.792      956.171      324.663        0.464        0.181       75.211       18.623        0.061      344.114       20.702      860.895
08/25/2013  21:28:00      -73.105     -103.774       -4.296       36.587       60.972       25.359     1338.638     3717.605      643.072        1.091        0.285      126.938       25.679        0.041      344.110       20.696      860.894
08/25/2013  21:29:00      -53.645     -125.862        0.343       43.504       78.485       30.588     1892.603     6159.934      935.648        1.385        0.449      136.818       32.574        0.057      344.130       20.728      860.908
08/25/2013  21:30:00     -168.313     -108.042       -1.710       90.398       61.234       40.978     8171.724     3749.592     1679.181        2.680        0.680      200.006       44.387        0.049      344.090       20.660      860.911
08/25/2013  21:31:00      -60.062     -110.493       12.800       75.830       47.793       27.096     5750.135     2284.166      734.170        1.237        0.438      125.762       26.226        0.043      344.088       20.657      860.921
08/25/2013  21:32:00      -61.684     -103.099        5.727       49.114       75.416       29.091     2412.225     5687.611      846.313        1.170        0.447      120.142       28.920        0.058      344.092       20.665      860.904
08/25/2013  21:33:00      -74.208      -91.577        3.533       80.775       53.721       31.396     6524.603     2885.993      985.727        1.215        0.520      117.869       37.925        0.104      344.033       20.565      860.925
08/25/2013  21:34:00     -135.956     -101.659        5.216       67.546       56.800       38.706     4562.516     3226.271     1498.179        1.906        0.464      169.760       28.056        0.027      343.942       20.408      860.945
08/25/2013  21:35:00     -166.325     -132.041      -10.997       66.310       68.537       40.550     4397.034     4697.377     1644.288        2.798        0.537      212.365       38.675        0.033      343.918       20.363      860.943
08/25/2013  21:36:00     -149.067     -172.864       -3.389       95.450       89.810       43.811     9110.720     8065.855     1919.416        3.560        0.955      228.261       41.348        0.033      344.081       20.645      860.928
08/25/2013  21:37:00     -167.139     -138.753       -4.048       70.468       87.890       44.876     4965.773     7724.580     2013.840        3.095        0.735      217.227       36.418        0.028      344.133       20.733      860.913
08/25/2013  21:38:00     -163.350     -150.549        0.200       92.543       81.167       48.018     8564.181     6588.070     2305.735        3.340        0.873      222.145       54.727        0.061      344.076       20.635      860.900
08/25/2013  21:39:00     -241.090     -160.158       -4.955      127.571      115.689       68.280    16274.323    13383.903     4662.157        5.905        1.716      289.439       72.854        0.063      344.066       20.618      860.893
08/25/2013  21:40:00     -340.771     -178.766      -10.526      130.250      103.799       57.064    16965.115    10774.260     3256.265        8.959        1.550      384.814       58.751        0.023      344.127       20.723      860.874
08/25/2013  21:41:00     -236.746     -143.162        4.124      122.914      110.159       59.519    15107.912    12134.994     3542.554        5.367        1.539      276.666       62.625        0.051      344.079       20.641      860.896
08/25/2013  21:42:00     -253.378     -189.855       -2.679      133.955       96.637       67.790    17943.908     9338.722     4595.510        6.606        1.594      316.616       75.459        0.057      344.098       20.673      860.890
08/25/2013  21:43:00     -190.386     -129.093       -0.119      109.446       86.785       46.938    11978.353     7531.663     2203.193        3.731        1.086      230.026       58.061        0.064      344.086       20.653      860.873
08/25/2013  21:44:00     -277.139     -156.925       -6.415      129.596       91.244       53.214    16795.184     8325.432     2831.770        6.471        1.398      318.483       53.886        0.029      344.062       20.612      860.880
08/25/2013  21:45:00     -255.562     -104.350       -9.702       82.135       67.685       38.743     6746.149     4581.193     1501.056        4.456        0.641      276.045       32.542        0.014      343.948       20.415      860.876
08/25/2013  21:46:00     -172.306      -59.439        3.498       97.334       99.438       49.140     9473.861     9887.987     2414.750        2.750        1.089      182.270       39.618        0.047      343.865       20.275      860.885
08/25/2013  21:47:00     -169.730     -103.068        2.078       76.980       96.456       40.342     5925.974     9303.733     1627.504        2.814        0.843      198.573       34.615        0.030      343.896       20.327      860.895
08/25/2013  21:48:00     -221.049     -127.677      -10.210       83.077       79.770       43.278     6901.790     6363.269     1872.975        4.020        0.757      255.273       38.799        0.023      343.900       20.333      860.885
08/25/2013  21:49:00     -177.650     -147.120       -4.743       76.720       68.995       52.762     5885.982     4760.328     2783.853        3.333        0.672      230.660       46.581        0.041      343.874       20.291      860.873
08/25/2013  21:50:00     -215.797     -166.809        7.121      119.241      109.390       70.884    14218.524    11966.134     5024.536        5.282        1.560      272.752       71.116        0.068      343.870       20.283      860.875
08/25/2013  21:51:00     -273.890     -140.863       -4.318      159.752      129.243       65.555    25520.671    16703.863     4297.490        7.069        2.326      307.990       78.906        0.066      343.894       20.326      860.879
08/25/2013  21:52:00     -221.457     -161.880       -9.366      101.227      110.288       51.776    10246.809    12163.485     2680.728        5.021        1.255      274.315       56.103        0.042      343.900       20.334      860.906
08/25/2013  21:53:00     -180.641     -146.745        0.042      119.721       79.113       53.019    14333.007     6258.944     2811.002        3.878        1.170      232.735       57.803        0.062      343.827       20.210      860.912
08/25/2013  21:54:00     -174.237     -146.219       10.267      120.068       72.459       54.169    14416.302     5250.314     2934.227        3.722        1.130      227.461       57.621        0.064      343.773       20.119      860.925
08/25/2013  21:55:00     -191.210     -135.060       13.240       88.241       63.796       46.655     7786.529     4069.872     2176.721        3.450        0.702      234.099       41.353        0.031      343.725       20.035      860.963
08/25/2013  21:56:00     -226.383     -141.197       -0.437      106.041       79.664       50.568    11244.654     6346.290     2557.119        4.566        1.007      266.806       48.362        0.033      343.684       19.964      860.962
08/25/2013  21:57:00     -251.235     -179.608       -2.931      151.958       93.722       64.591    23091.241     8783.883     4172.056        6.571        1.802      308.833       74.459        0.058      343.779       20.129      860.954
08/25/2013  21:58:00     -202.171     -178.631       -4.537      110.630      103.083       64.771    12239.094    10626.095     4195.302        4.993        1.353      269.782       63.058        0.055      343.800       20.163      860.947
08/25/2013  21:59:00     -162.097     -129.717       -4.974       83.786       66.414       40.145     7020.023     4410.772     1611.642        2.808        0.652      207.610       33.088        0.025      343.777       20.125      860.952
08/25/2013  22:00:00     -114.004     -115.821       -1.077       77.552       66.771       35.157     6014.368     4458.427     1236.043        1.906        0.585      162.515       44.729        0.076      343.672       19.946      860.958
08/25/2013  22:01:00     -163.742     -143.826        3.345       91.826       73.749       47.815     8431.930     5438.863     2286.262        3.183        0.808      217.939       37.350        0.029      343.668       19.937      860.948
08/25/2013  22:02:00     -226.379     -164.982       -8.948       84.348       70.368       51.203     7114.542     4951.628     2621.732        4.661        0.734      280.119       46.780        0.028      343.630       19.873      860.954
08/25/2013  22:03:00     -197.748     -127.736       -3.531       87.207       72.360       48.586     7605.091     5235.907     2360.614        3.531        0.760      235.416       52.484        0.050      343.585       19.796      860.966
08/25/2013  22:04:00     -141.714     -123.393       -6.850       89.801       55.410       40.023     8064.153     3070.239     1601.872        2.404        0.637      187.906       40.097        0.046      343.574       19.778      860.989
08/25/2013  22:05:00     -201.135     -158.462        3.950      109.361       75.315       49.734    11959.776     5672.361     2473.431        4.284        1.005      256.057       52.079        0.041      343.544       19.725      860.980
08/25/2013  22:06:00     -173.276     -125.851        1.531       95.820       81.373       39.174     9181.561     6621.562     1534.626        3.160        0.867      214.156       37.464        0.031      343.543       19.726      860.984
08/25/2013  22:07:00     -166.515     -136.271      -10.474       97.128       61.684       43.679     9433.905     3804.886     1907.851        3.077        0.757      215.168       47.692        0.049      343.569       19.769      860.977
08/25/2013  22:08:00     -165.041     -125.100       -5.122      118.203       66.396       47.315    13972.017     4408.465     2238.681        3.176        1.031      207.096       45.120        0.047      343.620       19.857      860.977
08/25/2013  22:09:00     -190.931     -142.383      -12.752       89.171       69.291       41.204     7951.422     4801.311     1697.786        3.567        0.723      238.175       48.388        0.041      343.567       19.767      860.986
08/25/2013  22:10:00     -141.131      -81.946       -0.797       67.548       58.032       39.141     4562.675     3367.704     1531.996        1.805        0.473      163.196       36.374        0.050      343.512       19.675      860.969
08/25/2013  22:11:00     -118.185      -88.533        2.016       61.355       59.726       33.471     3764.447     3567.165     1120.299        1.513        0.423      147.668       32.875        0.050      343.486       19.632      860.968
08/25/2013  22:12:00     -203.893     -183.234       -1.770       88.400       78.426       51.691     7814.645     6150.660     2671.984        4.589        0.832      274.130       43.643        0.025      343.608       19.836      860.970
08/25/2013  22:13:00     -263.094     -150.563      -14.334       58.427       60.724       38.992     3413.710     3687.360     1520.367        5.036        0.431      303.130       21.594        0.005      343.583       19.794      860.975
08/25/2013  22:14:00     -204.120     -142.742       -2.825       50.219       55.881       32.215     2521.939     3122.634     1037.815        3.436        0.334      249.078       22.944        0.008      343.559       19.750      860.984
08/25/2013  22:15:00     -180.845      -93.523       -2.435       86.452       70.293       42.504     7473.965     4941.117     1806.610        2.784        0.711      203.596       47.457        0.054      343.551       19.738      860.983
08/25/2013  22:16:00     -163.864     -123.541        7.454       59.390       74.315       40.825     3527.134     5522.772     1666.713        2.644        0.536      205.216       36.144        0.031      343.505       19.661      860.977
08/25/2013  22:17:00     -199.930     -157.252       -2.978      111.056       94.302       54.451    12333.443     8892.890     2964.954        4.445        1.210      254.362       54.456        0.046      343.508       19.666      860.991
08/25/2013  22:18:00     -236.178      -79.531       -5.057      118.456       76.097       53.324    14031.862     5790.796     2843.490        4.239        1.133      249.209       67.904        0.074      343.597       19.816      860.997
08/25/2013  22:19:00     -185.557      -54.966        3.671      121.454       80.633       54.106    14751.037     6501.719     2927.476        3.082        1.209      193.527       65.838        0.116      343.587       19.801      860.988
08/25/2013  22:20:00     -218.287     -105.502       -2.870      100.990      101.428       52.337    10199.054    10287.608     2739.135        4.100        1.161      242.446       50.964        0.044      343.716       20.021      860.998
08/25/2013  22:21:00     -220.680      -75.241       -1.234       93.857       83.201       45.663     8809.066     6922.395     2085.136        3.609        0.891      233.154       42.289        0.033      343.680       19.958      861.000
08/25/2013  22:22:00     -222.045      -73.923       -7.230      126.053       76.916       49.463    15889.339     5916.044     2446.588        3.953        1.213      234.027       61.190        0.068      343.637       19.885      860.989
08/25/2013  22:23:00     -266.347      -79.524       -0.077      111.722       85.769       52.987    12481.846     7356.338     2807.615        4.995        1.132      277.965       51.198        0.034      343.629       19.872      860.980
08/25/2013  22:24:00     -209.579      -57.292        6.735      117.114       85.546       57.426    13715.786     7318.186     3297.714        3.579        1.217      217.269       57.807        0.071      343.628       19.870      860.966
08/25/2013  22:25:00     -181.507      -56.108        9.567       96.376       64.961       55.567     9288.355     4219.951     3087.720        2.639        0.830      189.981       49.749        0.069      343.592       19.808      860.969
08/25/2013  22:26:00     -209.483      -44.869       -1.506       71.275       70.819       45.881     5080.177     5015.363     2105.086        2.905        0.610      214.235       31.606        0.022      343.653       19.914      860.977
08/25/2013  22:27:00     -186.856     -133.037       -4.047      103.887      104.250       57.089    10792.487    10868.099     3259.166        3.877        1.246      229.377       55.650        0.059      343.573       19.776      860.964
08/25/2013  22:28:00     -260.344      -95.726      -20.637       96.692       70.855       49.750     9349.258     5020.378     2475.050        4.710        0.842      277.385       50.565        0.033      343.549       19.736      860.963
08/25/2013  22:29:00     -230.362     -135.758       -8.994      109.749       91.656       49.523    12044.907     8400.739     2452.502        4.723        1.145      267.389       51.460        0.037      343.631       19.875      860.967
08/25/2013  22:30:00     -107.780      -78.251       20.145      123.331      112.085       60.266    15210.559    12562.938     3631.956        2.477        1.570      133.190       60.396        0.206      343.606       19.835      860.947
08/25/2013  22:31:00     -256.614      -91.654      -15.114      114.327       86.121       49.680    13070.623     7416.842     2468.089        4.871        1.148      272.491       48.540        0.032      343.662       19.928      860.950
08/25/2013  22:32:00     -238.330      -82.907       -8.716      103.421       78.562       52.162    10695.869     6172.048     2720.923        4.167        0.979      252.338       54.659        0.047      343.622       19.860      860.949
08/25/2013  22:33:00     -240.719     -114.933       -0.735      107.556       78.053       51.062    11568.196     6092.320     2607.309        4.571        1.013      266.749       47.027        0.031      343.626       19.868      860.958
08/25/2013  22:34:00     -195.434     -135.429        1.008      107.606       91.370       51.092    11579.120     8348.558     2610.360        3.953        1.127      237.772       53.153        0.050      343.622       19.857      860.941
08/25/2013  22:35:00     -199.468     -113.133       -7.327      127.012       94.706       47.660    16132.169     8969.304     2271.429        4.000        1.369      229.318       56.309        0.060      343.551       19.738      860.924
08/25/2013  22:36:00     -221.079      -44.326       -8.140       78.002       65.670       39.778     6084.268     4312.600     1582.288        3.144        0.599      225.479       40.257        0.032      343.487       19.629      860.940
08/25/2013  22:37:00     -162.299      -48.466        4.991       91.048       73.079       43.461     8289.797     5340.468     1888.824        2.211        0.776      169.381       46.724        0.076      343.474       19.608      860.954
08/25/2013  22:38:00     -219.203     -135.400       -8.655      126.887       83.441       44.226    16100.196     6962.403     1955.970        4.573        1.251      257.650       44.058        0.029      343.605       19.831      860.950
08/25/2013  22:39:00     -187.404      -79.423        1.718       93.445       73.908       42.998     8732.052     5462.451     1848.796        2.873        0.802      203.539       48.868        0.058      343.559       19.751      860.937
08/25/2013  22:40:00     -198.898      -92.586      -10.241       91.285       65.655       43.645     8332.899     4310.521     1904.894        3.139        0.727      219.392       42.516        0.038      343.534       19.710      860.944
08/25/2013  22:41:00     -173.166      -79.177        7.944       80.366       85.777       46.653     6458.669     7357.732     2176.522        2.615        0.800      190.409       45.693        0.058      343.495       19.645      860.946
08/25/2013  22:42:00     -182.706     -132.775      -11.336       98.878       89.291       52.227     9776.790     7972.851     2727.645        3.580        1.024      225.855       53.792        0.057      343.576       19.780      860.929
08/25/2013  22:43:00     -156.134      -96.648        4.640       68.814       69.482       38.020     4735.313     4827.777     1445.539        2.237        0.550      183.626       41.080        0.050      343.565       19.763      860.914
08/25/2013  22:44:00      -92.941      -47.202        4.994       51.406       44.094       28.065     2642.597     1944.310      787.662        0.813        0.269      104.240       21.380        0.042      343.502       19.658      860.914
08/25/2013  22:45:00     -169.633      -66.684       -4.311       80.851       72.272       37.290     6536.831     5223.256     1390.569        2.319        0.658      182.269       31.846        0.031      343.508       19.667      860.929
08/25/2013  22:46:00     -167.265      -62.049       -6.856       97.434       63.508       30.949     9493.402     4033.242      957.844        2.318        0.724      178.403       34.932        0.038      343.587       19.802      860.929
08/25/2013  22:47:00     -180.779     -100.318       -5.554       82.379       61.844       44.611     6786.302     3824.706     1990.174        2.769        0.630      206.748       38.633        0.035      343.581       19.790      860.921
08/25/2013  22:48:00     -171.372     -102.769        0.635       71.228       67.932       35.391     5073.365     4614.821     1252.517        2.543        0.547      199.825       28.127        0.020      343.522       19.689      860.922
08/25/2013  22:49:00     -222.559      -74.445        1.932       71.649       60.076       39.750     5133.570     3609.128     1580.041        3.270        0.516      234.680       31.833        0.018      343.522       19.689      860.906
08/25/2013  22:50:00     -168.125     -100.551        5.030      110.528       87.383       48.455    12216.358     7635.708     2347.859        3.030        1.110      195.899       45.605        0.054      343.476       19.611      860.897
08/25/2013  22:51:00     -257.197     -102.571       -7.986       89.161       85.113       43.103     7949.681     7244.288     1857.895        4.689        0.853      276.895       42.339        0.023      343.540       19.719      860.892
08/25/2013  22:52:00     -210.452      -87.515       -9.318       66.283       63.962       37.800     4393.375     4091.076     1428.816        3.097        0.496      227.923       36.564        0.026      343.476       19.610      860.878
08/25/2013  22:53:00     -212.161      -88.207        9.568       84.190       80.740       44.211     7087.981     6518.925     1954.580        3.422        0.778      229.767       43.331        0.036      343.450       19.568      860.887
08/25/2013  22:54:00     -146.390      -84.797        1.123       75.240       65.159       38.166     5661.132     4245.701     1456.622        1.999        0.568      169.176       37.268        0.049      343.525       19.698      860.894
08/25/2013  22:55:00     -199.018     -154.854       -3.680       91.855       93.117       53.097     8437.333     8670.693     2819.273        4.176        0.996      252.167       46.784        0.034      343.550       19.737      860.874
08/25/2013  22:56:00     -258.528     -134.868      -12.979       53.795       64.835       36.093     2893.855     4203.553     1302.738        4.680        0.420      291.593       25.348        0.008      343.558       19.748      860.860
08/25/2013  22:57:00     -177.443      -98.079       -9.571      101.106       68.722       42.306    10222.439     4722.705     1789.810        2.896        0.837      202.745       50.308        0.062      343.559       19.752      860.842
08/25/2013  22:58:00     -137.103      -49.605        4.575       70.650       85.857       40.716     4991.386     7371.436     1657.764        1.765        0.701      145.800       35.417        0.059      343.536       19.715      860.829
08/25/2013  22:59:00     -206.744      -96.605       -5.964       78.072       53.359       42.089     6095.255     2847.211     1771.459        3.141        0.536      228.201       40.928        0.032      343.521       19.688      860.826
08/25/2013  23:00:00     -260.817     -157.242       -1.718      101.452       90.335       53.544    10292.410     8160.473     2866.918        5.703        1.066      304.550       55.761        0.034      343.552       19.740      860.810
08/25/2013  23:01:00     -143.979     -107.537       -1.119      121.784       79.064       46.789    14831.423     6251.176     2189.196        2.778        1.164      179.706       53.595        0.089      343.507       19.665      860.780
08/25/2013  23:02:00     -136.914      -85.973        2.164      116.082      106.345       51.700    13475.120    11309.297     2672.854        2.679        1.373      161.669       62.313        0.149      343.487       19.630      860.764
08/25/2013  23:03:00     -276.607     -162.721      -20.330      119.944       99.390       52.213    14386.536     9878.375     2726.170        6.519        1.350      320.920       53.250        0.028      343.600       19.822      860.756
08/25/2013  23:04:00     -207.262      -98.831        0.990      117.262       87.462       53.210    13750.360     7649.631     2831.337        3.847        1.212      229.619       53.197        0.054      343.525       19.695      860.740
08/25/2013  23:05:00     -201.317      -56.472       23.338      171.042       93.099       79.686    29255.224     8667.403     6349.893        4.426        2.214      209.088       89.320        0.182      343.529       19.702      860.728
08/25/2013  23:06:00     -173.585      -87.989       16.814      140.705      120.067       80.711    19797.950    14416.109     6514.231        3.943        2.036      194.611       89.286        0.210      343.497       19.647      860.707
08/25/2013  23:07:00     -209.889     -110.161        2.895      137.215       96.734       59.016    18828.007     9357.562     3482.927        4.393        1.583      237.042       60.381        0.065      343.499       19.651      860.687
08/25/2013  23:08:00     -277.921     -165.613      -17.311      126.900      122.679       64.178    16103.648    15050.140     4118.765        7.011        1.764      323.524       57.755        0.032      343.582       19.791      860.677
08/25/2013  23:09:00     -285.527     -109.053      -11.007      136.912      109.468       56.456    18744.811    11983.347     3187.244        6.372        1.696      305.644       59.677        0.038      343.599       19.821      860.668
08/25/2013  23:10:00     -216.431     -178.542       -3.596      128.208      107.203       69.964    16437.257    11492.464     4894.918        5.577        1.641      280.571       62.885        0.050      343.566       19.763      860.644
08/25/2013  23:11:00     -339.864     -165.148      -12.424      152.086      122.393       65.943    23130.228    14979.960     4348.464        9.269        2.123      377.865       71.483        0.036      343.535       19.711      860.627
08/25/2013  23:12:00     -319.011     -173.665       -8.924      145.788      122.614       66.806    21254.165    15034.223     4463.056        8.637        2.038      363.218       69.868        0.037      343.551       19.739      860.610
08/25/2013  23:13:00     -278.601      -88.079        5.167      107.450      104.273       59.350    11545.427    10872.838     3522.420        5.567        1.297      292.193       56.256        0.037      343.501       19.655      860.602
08/25/2013  23:14:00     -358.218     -170.126       -3.608      149.709      113.646       71.677    22412.892    12915.510     5137.610        9.886        2.023      396.564       78.410        0.039      343.507       19.664      860.575
08/25/2013  23:15:00     -280.430     -122.769       -4.216      158.916      106.476       69.645    25254.262    11337.090     4850.440        6.758        2.072      306.126       82.890        0.073      343.463       19.589      860.565
08/25/2013  23:16:00     -299.063     -173.305        0.569      176.345      124.327       77.804    31097.630    15457.272     6053.432        8.603        2.630      345.649       75.420        0.048      343.477       19.614      860.528
08/25/2013  23:17:00     -264.841     -168.567       -6.218      117.882      124.783       60.130    13896.150    15570.745     3615.652        6.583        1.654      313.935       53.124        0.029      343.447       19.563      860.519
08/25/2013  23:18:00     -425.403     -291.486      -24.797      153.477      128.048       72.397    23555.084    16396.178     5241.362       15.586        2.260      515.686       74.123        0.021      343.464       19.592      860.495
08/25/2013  23:19:00     -337.163     -186.476       -3.934      192.565      131.035       75.668    37081.431    17170.042     5725.680       10.421        2.999      385.295       80.606        0.044      343.392       19.467      860.465
08/25/2013  23:20:00     -396.372     -229.058      -28.839      177.123      136.781       71.092    31372.414    18709.060     5054.009       13.276        2.757      457.797       80.984        0.031      343.393       19.469      860.426
08/25/2013  23:21:00     -373.963     -264.597       -1.408      192.285      142.908       78.752    36973.389    20422.787     6201.854       13.672        3.180      458.104       83.572        0.033      343.391       19.466      860.406
08/25/2013  23:22:00     -367.559     -223.581      -10.862      186.638      119.811       78.040    34833.689    14354.748     6090.291       12.023        2.764      430.219       79.856        0.034      343.424       19.522      860.382
08/25/2013  23:23:00     -372.618     -285.355       -7.633      222.086      166.350      109.872    49322.062    27672.207    12071.911       15.468        4.453      469.331      125.867        0.072      343.333       19.368      860.345
08/25/2013  23:24:00     -356.257     -219.237       -6.935      148.376      141.383       85.063    22015.363    19989.093     7235.694       11.213        2.462      418.311       82.814        0.039      343.256       19.236      860.311
08/25/2013  23:25:00     -379.664     -292.937      -17.697      171.355      134.053       87.584    29362.706    17970.283     7671.041       14.263        2.750      479.538       79.163        0.027      343.233       19.198      860.273
08/25/2013  23:26:00     -357.051     -238.071      -18.195      244.931      139.517       90.097    59991.058    19465.132     8117.554       13.602        4.379      429.142      100.825        0.055      343.293       19.300      860.243
08/25/2013  23:27:00     -374.126     -241.902       -0.116      178.086      123.641       88.059    31714.800    15287.204     7754.447       12.661        2.738      445.519       98.725        0.049      343.287       19.288      860.234
08/25/2013  23:28:00     -412.544     -205.857       -1.971      192.852      163.232       85.565    37191.775    26644.718     7321.361       14.185        3.558      461.053       88.660        0.037      343.298       19.309      860.220
08/25/2013  23:29:00     -369.365     -186.554       -0.526      215.027      149.550       99.011    46236.643    22365.179     9803.131       12.480        3.920      413.803      104.998        0.064      343.326       19.356      860.206
08/25/2013  23:30:00     -370.153     -325.292      -21.284      179.170      173.254       95.941    32101.961    30016.862     9204.721       15.729        3.566      492.776       88.995        0.033      343.297       19.305      860.196
08/25/2013  23:31:00     -333.595     -278.895       10.049      205.983      184.899      109.042    42429.117    34187.694    11890.135       13.882        4.425      434.819      113.815        0.069      343.289       19.291      860.177
08/25/2013  23:32:00     -456.913     -375.095      -26.040      224.890      209.828      105.127    50575.732    44027.816    11051.654       22.788        5.283      591.156      118.727        0.040      343.294       19.301      860.125
08/25/2013  23:33:00     -387.915     -189.025        3.100      226.395      178.966      118.348    51254.714    32028.907    14006.343       14.173        4.864      431.519      132.638        0.094      343.268       19.255      860.089
08/25/2013  23:34:00     -419.593     -205.489      -14.305      182.188      157.401       90.503    33192.437    24775.152     8190.722       14.231        3.308      467.209       81.243        0.030      343.313       19.334      860.062
08/25/2013  23:35:00     -424.962     -144.505       -9.292      216.857      207.739      124.637    47026.762    43155.645    15534.431       15.362        5.286      448.859      127.200        0.080      343.335       19.370      860.018
08/25/2013  23:36:00     -532.912     -116.696      -13.873      278.334      196.815      101.779    77469.699    38736.194    10359.062       21.216        6.328      545.540      121.115        0.049      343.386       19.457      860.005
08/25/2013  23:37:00     -330.301     -201.056      -11.468      215.445      178.070       98.649    46416.433    31708.847     9731.682       11.874        4.393      386.681      125.430        0.105      343.375       19.441      859.998
08/25/2013  23:38:00     -305.465     -164.746       -3.342      225.548      149.088      105.882    50871.762    22227.084    11211.017       10.237        4.215      347.059      121.109        0.122      343.344       19.387      860.008
08/25/2013  23:39:00     -347.155     -143.737       -7.086      188.253      146.837       87.610    35439.252    21560.970     7675.527       10.294        3.234      375.735       84.848        0.051      343.327       19.357      860.002
08/25/2013  23:40:00     -411.282     -111.030      -16.254      216.753      176.030      105.269    46981.934    30986.431    11081.543       13.538        4.452      426.005       94.656        0.049      343.394       19.471      860.025
08/25/2013  23:41:00     -263.024     -161.907        7.271      217.522      157.596       97.876    47315.989    24836.382     9579.754        8.857        4.087      308.861      115.422        0.140      343.356       19.407      860.023
08/25/2013  23:42:00     -340.794     -172.768      -10.655      185.517      175.023       85.729    34416.379    30633.124     7349.418       10.924        3.620      382.085       92.385        0.058      343.420       19.515      860.071
08/25/2013  23:43:00     -384.275     -164.296      -25.694      151.592      130.437       81.349    22980.240    17013.867     6617.736       11.096        2.331      417.924       83.051        0.039      343.415       19.507      860.136
08/25/2013  23:44:00     -287.536     -130.741        0.937      186.947      140.374       73.420    34949.206    19704.881     5390.549        7.990        3.002      315.864       88.367        0.078      343.371       19.432      860.179
08/25/2013  23:45:00     -249.799      -49.249        3.091      190.316      123.569       70.118    36220.143    15269.375     4916.529        6.061        2.820      254.608       79.325        0.097      343.325       19.355      860.192
08/25/2013  23:46:00     -284.599     -233.566      -22.481      116.011      123.284       60.797    13458.562    15199.019     3696.279        8.420        1.618      368.171       59.845        0.026      343.442       19.554      860.268
08/25/2013  23:47:00     -229.545     -204.779      -16.661      130.574      112.982       59.609    17049.684    12764.993     3553.289        6.413        1.668      307.612       55.160        0.032      343.474       19.607      860.344
08/25/2013  23:48:00     -135.716      -85.411       14.623      104.811       86.446       51.547    10985.295     7472.827     2657.093        2.352        1.056      160.356       48.932        0.093      343.427       19.529      860.423
08/25/2013  23:49:00     -109.520      -94.712       11.108      107.897       75.015       51.032    11641.848     5627.261     2604.288        2.048        0.994      144.793       53.538        0.137      343.407       19.496      860.477
08/25/2013  23:50:00     -164.917      -42.335       -4.086       85.307       86.893       46.007     7277.244     7550.385     2116.685        2.297        0.847      170.264       39.328        0.053      343.468       19.599      860.498
08/25/2013  23:51:00      -63.284      -94.874        0.630       80.765       84.495       48.936     6522.984     7139.322     2394.727        1.453        0.803      114.043       52.234        0.210      343.395       19.474      860.540
08/25/2013  23:52:00     -136.830       -8.302      -14.377      158.928       91.396       53.299    25258.020     8353.246     2840.746        2.772        1.823      137.082       62.596        0.209      343.433       19.540      860.589
08/25/2013  23:53:00      -39.235     -119.843       27.395      152.905       80.087       52.128    23379.854     6413.967     2717.365        2.458        1.626      126.102       57.639        0.209      343.490       19.637      860.642
08/25/2013  23:54:00       -4.564      -92.941       -2.819       64.444       75.134       33.862     4153.010     5645.178     1146.610        0.980        0.547       93.053       23.644        0.065      343.441       19.555      860.663
08/25/2013  23:55:00       42.989      -11.091       28.484       56.893       65.675       49.316     3236.860     4313.180     2432.097        0.638        0.499       44.397       40.792        0.844      343.066       18.916      860.693
08/25/2013  23:56:00       71.732       27.921       12.461       37.413       41.984       34.336     1399.758     1762.687     1178.944        0.521        0.217       76.974       16.269        0.045      342.822       18.500      860.679
08/25/2013  23:57:00       28.755       42.690       -2.373       23.401       33.477       16.916      547.605     1120.727      286.145        0.230        0.098       51.471        8.830        0.029      343.275       19.274      860.663
08/25/2013  23:58:00      149.095       74.652       11.807       38.764       33.966       35.200     1502.643     1153.706     1239.062        1.592        0.195      166.740       15.987        0.009      343.247       19.223      860.669
08/25/2013  23:59:00       -1.732       52.403        7.911       98.229       47.773       41.051     9648.945     2282.292     1685.221        0.821        0.681       52.432       33.140        0.399      343.153       19.063      860.674
